Aérodrome :
LOGIN :

S'inscrire | Disclaimer

   EN    FR    IT 

 










Légende :    VFR   VFR Marginal   IFR   IFR Intensif   IFR Très Intensif
Visi : 
Plafond : 
>= 8 km
>= 3000ft
5 à 8 km
1000 à 3000 ft
1500m à 5 km
500 à 1000 ft
800 à 1500m
200 à 500 ft
< 800m
< 200 ft
Symboles :   Orages  Brouillard  Fortes neiges  Fortes précipitations  Vent > 20 kt
SIGMETs :   Divers  Orages  Givrage  Turbulence  Onde Orograph.  Cendres Volcan.






- Altitude de l'aérodrome : 333 ft


LIPL - Ghedi Brescia (Mil)

METARs EXPIRÉS :
  • 100455Z 09001KT CAVOK 06/06 Q1021 RMK SKC VIS MIN 9999 WIND THR31 05002KT WIND THR13 10002KT BLU
  • 100355Z 02003KT CAVOK 07/05 Q1021 RMK SKC VIS MIN 9999 WIND THR31 01002KT WIND THR13 02002KT BLU

TAF TAF LIPL
Valide du 10 à 06h jusqu'au 10 à 15h UTC


100500Z 1006/1015 VRB03KT CAVOK



MET'MAP, la Météo Aéronautique d'un coup d'oeil ! - Copyright ORBIFLY Décembre 2007 - Disclaimer

ORBIFLY MET'MAP TEAM :

Programmation & Développement : Alexandra Zaïnal
Sur une idée originale de : Baudouin d'Aumeries
Assistance à la programmation : Marc-Olivier Méhu
Soutien technique & logistique : Manuel Goepfert

Contact : metmap@orbifly.com




SOURCES & CREDITS :

   NOAA